Terminal Aerodrome Forecast
Issued by NWS Central Illinois

Home | Current Version | Previous Version | Text Only | Print | Product List | Glossary On
Versions: 1 2 3 4 5 6 7 8 9 10 11 12 13 14 15 16 17 18 19 20
000
FTUS43 KILX 210800 AAA
TAFPIA
TAF AMD
KPIA 210840Z 2109/2206 18005KT P6SM VCSH BKN050 OVC120
     FM211400 22009KT P6SM SCT050 BKN120
     FM212100 22012KT P6SM SCT060
     FM220100 20007KT P6SM BKN250=

USA.gov is the U.S. government's official web portal to all federal, state and local government web resources and services.